createdAt,value
2022-12-25T00:00:39.187Z,0.00
2022-12-25T00:01:39.163Z,0.00
2022-12-25T00:02:39.264Z,0.00
2022-12-25T00:03:39.298Z,0.00
2022-12-25T00:04:40.135Z,0.00
2022-12-25T00:05:39.215Z,0.00
2022-12-25T00:06:39.153Z,0.00
2022-12-25T00:07:39.161Z,0.00
2022-12-25T00:08:39.202Z,0.00
2022-12-25T00:09:39.130Z,0.00
2022-12-25T00:10:45.029Z,0.00
2022-12-25T00:11:40.019Z,0.00
2022-12-25T00:12:40.619Z,0.00
2022-12-25T00:13:39.204Z,0.00
2022-12-25T00:14:40.118Z,0.00
2022-12-25T00:15:39.100Z,0.00
2022-12-25T00:16:39.011Z,0.00
2022-12-25T00:17:38.973Z,0.00
2022-12-25T00:18:40.407Z,0.00
2022-12-25T00:19:39.002Z,0.00
2022-12-25T00:20:38.878Z,0.00
2022-12-25T00:21:38.905Z,0.00
2022-12-25T00:22:39.017Z,0.00
2022-12-25T00:23:38.863Z,0.00
2022-12-25T00:24:38.932Z,0.00
2022-12-25T00:25:38.842Z,0.00
2022-12-25T00:26:38.855Z,0.00
2022-12-25T00:27:38.814Z,0.00
2022-12-25T00:28:38.832Z,0.00
2022-12-25T00:29:38.781Z,0.00
2022-12-25T00:30:38.788Z,0.00
2022-12-25T00:31:38.842Z,0.00
2022-12-25T00:32:39.953Z,0.00
2022-12-25T00:33:38.780Z,0.00
2022-12-25T00:34:38.724Z,0.00
2022-12-25T00:35:39.640Z,0.00
2022-12-25T00:36:41.957Z,0.00
2022-12-25T00:37:38.807Z,0.00
2022-12-25T00:38:38.680Z,0.00
2022-12-25T00:39:38.804Z,0.00
2022-12-25T00:40:38.686Z,0.00
2022-12-25T00:41:38.656Z,0.00
2022-12-25T00:42:38.688Z,0.00
2022-12-25T00:43:38.620Z,0.00
2022-12-25T00:44:38.580Z,0.00
2022-12-25T00:45:38.619Z,0.00
2022-12-25T00:46:38.583Z,0.00
2022-12-25T00:47:40.031Z,0.00
2022-12-25T00:48:39.022Z,0.00
2022-12-25T00:49:39.033Z,0.00
2022-12-25T00:50:38.507Z,0.00
2022-12-25T00:51:38.861Z,0.00
2022-12-25T00:52:38.649Z,0.00
2022-12-25T00:53:38.527Z,0.00
2022-12-25T00:54:38.544Z,0.00
2022-12-25T00:55:38.531Z,0.00
2022-12-25T00:56:39.173Z,0.00
2022-12-25T00:57:38.456Z,0.00
2022-12-25T00:58:38.419Z,0.00
2022-12-25T00:59:38.535Z,0.00
2022-12-25T01:00:38.472Z,0.00
2022-12-25T01:01:38.593Z,0.00
2022-12-25T01:02:38.567Z,0.00
2022-12-25T01:03:39.504Z,0.00
2022-12-25T01:04:39.439Z,0.00
2022-12-25T01:05:38.345Z,0.00
2022-12-25T01:06:38.279Z,0.00
2022-12-25T01:07:38.556Z,0.00
2022-12-25T01:08:38.286Z,0.00
2022-12-25T01:09:39.444Z,0.00
2022-12-25T01:10:38.278Z,0.00
2022-12-25T01:11:38.244Z,0.00
2022-12-25T01:12:39.161Z,0.00
2022-12-25T01:13:38.260Z,0.00
2022-12-25T01:14:38.963Z,0.00
2022-12-25T01:15:38.243Z,0.00
2022-12-25T01:16:38.249Z,0.00
2022-12-25T01:17:38.162Z,0.00
2022-12-25T01:18:38.159Z,0.00
2022-12-25T01:19:38.156Z,0.00
2022-12-25T01:20:38.144Z,0.00
2022-12-25T01:21:38.133Z,0.00
2022-12-25T01:22:38.746Z,0.00
2022-12-25T01:23:39.119Z,0.00
2022-12-25T01:24:38.103Z,0.00
2022-12-25T01:25:38.082Z,0.00
2022-12-25T01:26:38.836Z,0.00
2022-12-25T01:27:38.072Z,0.00
2022-12-25T01:28:38.048Z,0.00
2022-12-25T01:29:37.999Z,0.00
2022-12-25T01:30:38.004Z,0.00
2022-12-25T01:31:38.080Z,0.00
2022-12-25T01:32:37.978Z,0.00
2022-12-25T01:33:38.119Z,0.00
2022-12-25T01:34:37.965Z,0.00
2022-12-25T01:35:37.986Z,0.00
2022-12-25T01:36:37.963Z,0.00
2022-12-25T01:37:37.922Z,0.00
2022-12-25T01:38:37.889Z,0.00
2022-12-25T01:39:38.095Z,0.00
2022-12-25T01:40:38.035Z,0.00
2022-12-25T01:41:37.888Z,0.00
2022-12-25T01:42:37.865Z,0.00
2022-12-25T01:43:37.881Z,0.00
2022-12-25T01:44:38.633Z,0.00
2022-12-25T01:45:37.931Z,0.00
2022-12-25T01:46:37.813Z,0.00
2022-12-25T01:47:37.787Z,0.00
2022-12-25T01:48:38.156Z,0.00
2022-12-25T01:49:37.757Z,0.00
2022-12-25T01:50:37.735Z,0.00
2022-12-25T01:51:37.725Z,0.00
2022-12-25T01:52:37.748Z,0.00
2022-12-25T01:53:37.747Z,0.00
2022-12-25T01:54:38.704Z,0.00
2022-12-25T01:55:37.725Z,0.00
2022-12-25T01:56:37.798Z,0.00
2022-12-25T01:57:38.417Z,0.00
2022-12-25T01:58:37.653Z,0.00
2022-12-25T01:59:37.634Z,0.00
2022-12-25T02:00:37.644Z,0.00
2022-12-25T02:01:38.631Z,0.00
2022-12-25T02:02:37.716Z,0.00
2022-12-25T02:03:38.359Z,0.00
2022-12-25T02:04:37.816Z,0.00
2022-12-25T02:05:37.557Z,0.00
2022-12-25T02:06:37.569Z,0.00
2022-12-25T02:07:37.658Z,0.00
2022-12-25T02:08:37.717Z,0.00
2022-12-25T02:09:37.558Z,0.00
2022-12-25T02:10:37.547Z,0.00
2022-12-25T02:11:37.908Z,0.00
2022-12-25T02:12:38.517Z,0.00
2022-12-25T02:13:38.349Z,0.00
2022-12-25T02:14:38.213Z,0.00
2022-12-25T02:15:37.545Z,0.00
2022-12-25T02:16:58.000Z,0.00
2022-12-25T02:17:39.398Z,0.00
2022-12-25T02:18:37.422Z,0.00
2022-12-25T02:19:38.089Z,0.00
2022-12-25T02:20:38.159Z,0.00
2022-12-25T02:21:37.392Z,0.00
2022-12-25T02:22:37.330Z,0.00
2022-12-25T02:23:37.358Z,0.00
2022-12-25T02:24:37.983Z,0.00
2022-12-25T02:25:37.403Z,0.00
2022-12-25T02:26:38.264Z,0.00
2022-12-25T02:27:37.325Z,0.00
2022-12-25T02:28:37.389Z,0.00
2022-12-25T02:29:37.484Z,0.00
2022-12-25T02:30:37.319Z,0.00
2022-12-25T02:31:37.411Z,0.00
2022-12-25T02:32:37.373Z,0.00
2022-12-25T02:33:37.196Z,0.00
2022-12-25T02:34:37.398Z,0.00
2022-12-25T02:35:37.483Z,0.00
2022-12-25T02:36:38.257Z,0.00
2022-12-25T02:37:37.173Z,0.00
2022-12-25T02:38:37.171Z,0.00
2022-12-25T02:39:37.972Z,0.00
2022-12-25T02:40:37.357Z,0.00
2022-12-25T02:41:37.104Z,0.00
2022-12-25T02:42:38.190Z,0.00
2022-12-25T02:43:37.211Z,0.00
2022-12-25T02:44:37.053Z,0.00
2022-12-25T02:45:37.094Z,0.00
2022-12-25T02:46:37.056Z,0.00
2022-12-25T02:47:37.046Z,0.00
2022-12-25T02:48:37.055Z,0.00
2022-12-25T02:49:37.445Z,0.00
2022-12-25T02:50:36.991Z,0.00
2022-12-25T02:51:37.034Z,0.00
2022-12-25T02:52:37.520Z,0.00
2022-12-25T02:53:36.952Z,0.00
2022-12-25T02:54:37.093Z,0.00
2022-12-25T02:55:36.970Z,0.00
2022-12-25T02:56:37.873Z,0.00
2022-12-25T02:57:36.960Z,0.00
2022-12-25T02:58:36.887Z,0.00
2022-12-25T02:59:36.903Z,0.00
2022-12-25T03:00:37.384Z,0.00
2022-12-25T03:01:36.937Z,0.00
2022-12-25T03:02:36.845Z,0.00
2022-12-25T03:03:36.933Z,0.00
2022-12-25T03:04:36.821Z,0.00
2022-12-25T03:05:36.975Z,0.00
2022-12-25T03:06:36.826Z,0.00
2022-12-25T03:07:37.032Z,0.00
2022-12-25T03:08:36.771Z,0.00
2022-12-25T03:09:36.803Z,0.00
2022-12-25T03:10:36.769Z,0.00
2022-12-25T03:11:37.104Z,0.00
2022-12-25T03:12:37.263Z,0.00
2022-12-25T03:13:36.973Z,0.00
2022-12-25T03:14:37.683Z,0.00
2022-12-25T03:15:36.663Z,0.00
2022-12-25T03:16:36.724Z,0.00
2022-12-25T03:17:36.671Z,0.00
2022-12-25T03:18:36.739Z,0.00
2022-12-25T03:19:37.624Z,0.00
2022-12-25T03:20:36.596Z,0.00
2022-12-25T03:21:36.617Z,0.00
2022-12-25T03:22:36.572Z,0.00
2022-12-25T03:23:37.325Z,0.00
2022-12-25T03:24:37.511Z,0.00
2022-12-25T03:25:36.586Z,0.00
2022-12-25T03:26:36.585Z,0.00
2022-12-25T03:27:36.519Z,0.00
2022-12-25T03:28:36.490Z,0.00
2022-12-25T03:29:36.604Z,0.00
2022-12-25T03:30:37.618Z,0.00
2022-12-25T03:31:36.439Z,0.00
2022-12-25T03:32:36.471Z,0.00
2022-12-25T03:33:45.160Z,0.00
2022-12-25T03:34:38.406Z,0.00
2022-12-25T03:35:36.569Z,0.00
2022-12-25T03:36:36.456Z,0.00
2022-12-25T03:37:36.377Z,0.00
2022-12-25T03:38:36.615Z,0.00
2022-12-25T03:39:36.373Z,0.00
2022-12-25T03:40:36.418Z,0.00
2022-12-25T03:41:36.453Z,0.00
2022-12-25T03:42:36.427Z,0.00
2022-12-25T03:43:36.320Z,0.00
2022-12-25T03:44:36.380Z,0.00
2022-12-25T03:45:36.292Z,0.00
2022-12-25T03:46:36.314Z,0.00
2022-12-25T03:47:36.465Z,0.00
2022-12-25T03:48:36.246Z,0.00
2022-12-25T03:49:37.400Z,0.00
2022-12-25T03:50:36.243Z,0.00
2022-12-25T03:51:36.248Z,0.00
2022-12-25T03:52:36.314Z,0.00
2022-12-25T03:53:36.204Z,0.00
2022-12-25T03:54:37.429Z,0.00
2022-12-25T03:55:36.279Z,0.00
2022-12-25T03:56:36.391Z,0.00
2022-12-25T03:57:37.148Z,0.00
2022-12-25T03:58:36.121Z,0.00
2022-12-25T03:59:36.572Z,0.00
2022-12-25T04:00:36.081Z,0.00
2022-12-25T04:01:36.823Z,0.00
2022-12-25T04:02:37.364Z,0.00
2022-12-25T04:03:37.616Z,0.00
2022-12-25T04:04:36.093Z,0.00
2022-12-25T04:05:36.265Z,0.00
2022-12-25T04:06:36.410Z,0.00
2022-12-25T04:07:37.205Z,0.00
2022-12-25T04:08:37.113Z,0.00
2022-12-25T04:09:36.007Z,0.00
2022-12-25T04:10:36.913Z,0.00
2022-12-25T04:11:35.977Z,0.00
2022-12-25T04:12:36.115Z,0.00
2022-12-25T04:13:35.915Z,0.00
2022-12-25T04:14:35.935Z,0.00
2022-12-25T04:15:37.055Z,0.00
2022-12-25T04:16:36.162Z,0.00
2022-12-25T04:17:36.815Z,0.00
2022-12-25T04:18:35.885Z,0.00
2022-12-25T04:19:37.071Z,0.00
2022-12-25T04:20:35.851Z,0.00
2022-12-25T04:21:35.874Z,0.00
2022-12-25T04:22:35.808Z,0.00
2022-12-25T04:23:35.810Z,0.00
2022-12-25T04:24:36.809Z,0.00
2022-12-25T04:25:36.007Z,0.00
2022-12-25T04:26:36.981Z,0.00
2022-12-25T04:27:36.732Z,0.00
2022-12-25T04:28:35.838Z,0.00
2022-12-25T04:29:35.716Z,0.00
2022-12-25T04:30:36.162Z,0.00
2022-12-25T04:31:37.089Z,0.00
2022-12-25T04:32:35.658Z,0.00
2022-12-25T04:33:35.670Z,0.00
2022-12-25T04:34:35.638Z,0.00
2022-12-25T04:35:35.681Z,0.00
2022-12-25T04:36:36.466Z,0.00
2022-12-25T04:37:35.605Z,0.00
2022-12-25T04:38:36.787Z,0.00
2022-12-25T04:39:36.699Z,0.00
2022-12-25T04:40:35.924Z,0.00
2022-12-25T04:41:35.552Z,0.00
2022-12-25T04:42:35.543Z,0.00
2022-12-25T04:43:36.316Z,0.00
2022-12-25T04:44:35.536Z,0.00
2022-12-25T04:45:35.610Z,0.00
2022-12-25T04:46:35.805Z,0.00
2022-12-25T04:47:36.430Z,0.00
2022-12-25T04:48:36.460Z,0.00
2022-12-25T04:49:36.271Z,0.00
2022-12-25T04:50:35.457Z,0.00
2022-12-25T04:51:35.764Z,0.00
2022-12-25T04:52:36.467Z,0.00
2022-12-25T04:53:36.365Z,0.00
2022-12-25T04:54:35.429Z,0.00
2022-12-25T04:55:35.460Z,0.00
2022-12-25T04:56:43.350Z,0.00
2022-12-25T04:57:36.402Z,0.00
2022-12-25T04:58:35.350Z,0.00
2022-12-25T04:59:36.307Z,0.00
2022-12-25T05:00:35.329Z,0.00
2022-12-25T05:01:35.556Z,0.00
2022-12-25T05:02:35.557Z,0.00
2022-12-25T05:03:35.403Z,0.00
2022-12-25T05:04:35.328Z,0.00
2022-12-25T05:05:35.281Z,0.00
2022-12-25T05:06:35.580Z,0.00
2022-12-25T05:07:35.313Z,0.00
2022-12-25T05:08:35.318Z,0.00
2022-12-25T05:09:35.240Z,0.00
2022-12-25T05:10:35.205Z,0.00
2022-12-25T05:11:35.312Z,0.00
2022-12-25T05:12:35.286Z,0.00
2022-12-25T05:13:35.157Z,0.00
2022-12-25T05:14:35.260Z,0.00
2022-12-25T05:15:35.653Z,0.00
2022-12-25T05:16:36.176Z,0.00
2022-12-25T05:17:36.113Z,0.00
2022-12-25T05:18:35.638Z,0.00
2022-12-25T05:19:35.139Z,0.00
2022-12-25T05:20:39.994Z,0.00
2022-12-25T05:21:36.188Z,0.00
2022-12-25T05:22:35.035Z,0.00
2022-12-25T05:23:35.113Z,0.00
2022-12-25T05:24:35.046Z,0.00
2022-12-25T05:25:35.080Z,0.00
2022-12-25T05:26:34.982Z,0.00
2022-12-25T05:27:35.029Z,0.00
2022-12-25T05:28:34.952Z,0.00
2022-12-25T05:29:35.030Z,0.00
2022-12-25T05:30:35.005Z,0.00
2022-12-25T05:31:35.842Z,0.00
2022-12-25T05:32:34.903Z,0.00
2022-12-25T05:33:35.033Z,0.00
2022-12-25T05:34:36.028Z,0.00
2022-12-25T05:35:35.026Z,0.00
2022-12-25T05:36:34.903Z,0.00
2022-12-25T05:37:34.946Z,0.00
2022-12-25T05:38:34.933Z,0.00
2022-12-25T05:39:34.852Z,0.00
2022-12-25T05:40:34.809Z,0.00
2022-12-25T05:41:35.875Z,0.00
2022-12-25T05:42:34.957Z,0.00
2022-12-25T05:43:35.668Z,0.00
2022-12-25T05:44:34.816Z,0.00
2022-12-25T05:45:34.743Z,0.00
2022-12-25T05:46:35.957Z,0.00
2022-12-25T05:47:34.763Z,0.00
2022-12-25T05:48:34.886Z,0.00
2022-12-25T05:49:35.605Z,0.00
2022-12-25T05:50:35.546Z,0.00
2022-12-25T05:51:34.900Z,0.00
2022-12-25T05:52:34.757Z,0.00
2022-12-25T05:53:35.748Z,0.00
2022-12-25T05:54:35.635Z,0.00
2022-12-25T05:55:35.573Z,0.00
2022-12-25T05:56:34.630Z,0.00
2022-12-25T05:57:35.183Z,0.00
2022-12-25T05:58:34.616Z,0.00
2022-12-25T05:59:34.597Z,0.00
2022-12-25T06:00:35.431Z,0.00
2022-12-25T06:01:34.609Z,0.00
2022-12-25T06:02:34.796Z,0.00
2022-12-25T06:03:34.560Z,0.00
2022-12-25T06:04:35.637Z,0.00
2022-12-25T06:05:34.466Z,0.00
2022-12-25T06:06:34.458Z,0.00
2022-12-25T06:07:34.457Z,0.00
2022-12-25T06:08:34.574Z,0.00
2022-12-25T06:09:35.223Z,0.00
2022-12-25T06:10:34.529Z,0.00
2022-12-25T06:11:34.510Z,0.00
2022-12-25T06:12:34.507Z,0.00
2022-12-25T06:13:34.403Z,0.00
2022-12-25T06:14:34.496Z,0.00
2022-12-25T06:15:34.567Z,0.00
2022-12-25T06:16:38.237Z,0.00
2022-12-25T06:17:34.449Z,0.00
2022-12-25T06:18:35.379Z,0.00
2022-12-25T06:19:34.419Z,0.00
2022-12-25T06:20:34.307Z,0.00
2022-12-25T06:21:35.095Z,0.00
2022-12-25T06:22:34.272Z,0.00
2022-12-25T06:23:35.361Z,0.00
2022-12-25T06:24:34.772Z,0.00
2022-12-25T06:25:34.349Z,0.00
2022-12-25T06:26:34.400Z,0.00
2022-12-25T06:27:34.209Z,0.00
2022-12-25T06:28:34.303Z,0.00
2022-12-25T06:29:34.187Z,0.00
2022-12-25T06:30:34.170Z,0.00
2022-12-25T06:31:34.185Z,0.00
2022-12-25T06:32:34.143Z,0.00
2022-12-25T06:33:34.129Z,0.00
2022-12-25T06:34:35.135Z,0.00
2022-12-25T06:35:34.100Z,0.00
2022-12-25T06:36:34.132Z,0.00
2022-12-25T06:37:34.121Z,0.00
2022-12-25T06:38:34.101Z,0.00
2022-12-25T06:39:34.114Z,0.00
2022-12-25T06:40:34.102Z,0.00
2022-12-25T06:41:34.143Z,0.00
2022-12-25T06:42:34.512Z,0.00
2022-12-25T06:43:34.030Z,0.00
2022-12-25T06:44:33.990Z,0.00
2022-12-25T06:45:33.991Z,0.00
2022-12-25T06:46:34.744Z,0.00
2022-12-25T06:47:34.060Z,0.00
2022-12-25T06:48:33.922Z,0.00
2022-12-25T06:49:34.773Z,0.00
2022-12-25T06:50:34.874Z,0.00
2022-12-25T06:51:33.872Z,0.00
2022-12-25T06:52:33.896Z,0.00
2022-12-25T06:53:40.466Z,0.00
2022-12-25T06:54:34.911Z,0.00
2022-12-25T06:55:33.821Z,0.00
2022-12-25T06:56:33.811Z,0.00
2022-12-25T06:57:34.315Z,0.00
2022-12-25T06:58:33.785Z,0.00
2022-12-25T06:59:34.978Z,0.00
2022-12-25T07:00:33.861Z,0.00
2022-12-25T07:01:34.034Z,0.00
2022-12-25T07:02:33.857Z,0.00
2022-12-25T07:03:34.644Z,0.00
2022-12-25T07:04:33.764Z,0.00
2022-12-25T07:05:33.792Z,0.00
2022-12-25T07:06:33.897Z,0.00
2022-12-25T07:07:33.882Z,0.00
2022-12-25T07:08:33.647Z,0.00
2022-12-25T07:09:33.639Z,0.00
2022-12-25T07:10:33.766Z,0.00
2022-12-25T07:11:33.644Z,0.00
2022-12-25T07:12:33.615Z,0.00
2022-12-25T07:13:34.703Z,0.00
2022-12-25T07:14:33.632Z,0.00
2022-12-25T07:15:33.890Z,0.00
2022-12-25T07:16:33.710Z,0.00
2022-12-25T07:17:33.579Z,0.00
2022-12-25T07:18:33.700Z,5.62
2022-12-25T07:19:33.545Z,5.62
2022-12-25T07:20:33.525Z,5.62
2022-12-25T07:21:33.643Z,5.62
2022-12-25T07:22:33.504Z,5.62
2022-12-25T07:23:34.436Z,5.62
2022-12-25T07:24:33.617Z,11.25
2022-12-25T07:25:37.245Z,11.25
2022-12-25T07:26:33.432Z,11.25
2022-12-25T07:27:33.388Z,11.25
2022-12-25T07:28:33.428Z,11.25
2022-12-25T07:29:33.476Z,11.25
2022-12-25T07:30:33.367Z,11.25
2022-12-25T07:31:33.426Z,16.88
2022-12-25T07:32:33.793Z,16.88
2022-12-25T07:33:33.362Z,16.88
2022-12-25T07:34:33.373Z,16.88
2022-12-25T07:35:33.306Z,16.88
2022-12-25T07:36:33.363Z,16.88
2022-12-25T07:37:33.292Z,16.88
2022-12-25T07:38:33.307Z,22.50
2022-12-25T07:39:33.286Z,22.50
2022-12-25T07:40:33.276Z,22.50
2022-12-25T07:41:33.427Z,22.50
2022-12-25T07:42:33.208Z,22.50
2022-12-25T07:43:33.571Z,22.50
2022-12-25T07:44:33.231Z,28.12
2022-12-25T07:45:33.748Z,28.12
2022-12-25T07:46:33.241Z,28.12
2022-12-25T07:47:33.159Z,28.12
2022-12-25T07:48:33.130Z,28.12
2022-12-25T07:49:33.139Z,33.75
2022-12-25T07:50:33.117Z,33.75
2022-12-25T07:51:33.121Z,33.75
2022-12-25T07:52:38.052Z,33.75
2022-12-25T07:53:34.119Z,33.75
2022-12-25T07:54:33.102Z,39.38
2022-12-25T07:55:33.051Z,39.38
2022-12-25T07:56:33.050Z,39.38
2022-12-25T07:57:34.071Z,39.38
2022-12-25T07:58:33.022Z,39.38
2022-12-25T07:59:33.029Z,39.38
2022-12-25T08:00:33.107Z,39.38
2022-12-25T08:01:34.345Z,45.00
2022-12-25T08:02:33.337Z,45.00
2022-12-25T08:03:34.004Z,45.00
2022-12-25T08:04:33.913Z,50.62
2022-12-25T08:05:32.978Z,50.62
2022-12-25T08:06:32.939Z,50.62
2022-12-25T08:07:33.151Z,50.62
2022-12-25T08:08:32.881Z,50.62
2022-12-25T08:09:32.903Z,50.62
2022-12-25T08:10:32.851Z,50.62
2022-12-25T08:11:32.989Z,50.62
2022-12-25T08:12:32.841Z,56.25
2022-12-25T08:13:34.068Z,56.25
2022-12-25T08:14:32.838Z,61.88
2022-12-25T08:15:32.979Z,61.88
2022-12-25T08:16:32.863Z,61.88
2022-12-25T08:17:33.684Z,61.88
2022-12-25T08:18:32.786Z,61.88
2022-12-25T08:19:34.005Z,61.88
2022-12-25T08:20:32.757Z,61.88
2022-12-25T08:21:32.722Z,67.50
2022-12-25T08:22:33.715Z,67.50
2022-12-25T08:23:32.711Z,67.50
2022-12-25T08:24:33.327Z,67.50
2022-12-25T08:25:32.729Z,61.88
2022-12-25T08:26:33.848Z,61.88
2022-12-25T08:27:32.655Z,67.50
2022-12-25T08:28:32.700Z,67.50
2022-12-25T08:29:33.015Z,67.50
2022-12-25T08:30:32.659Z,73.12
2022-12-25T08:31:32.653Z,73.12
2022-12-25T08:32:32.595Z,78.75
2022-12-25T08:33:32.668Z,78.75
2022-12-25T08:34:32.579Z,78.75
2022-12-25T08:35:34.002Z,84.38
2022-12-25T08:36:32.686Z,90.00
2022-12-25T08:37:32.533Z,90.00
2022-12-25T08:38:32.557Z,95.62
2022-12-25T08:39:32.525Z,95.62
2022-12-25T08:40:32.497Z,101.25
2022-12-25T08:41:32.519Z,101.25
2022-12-25T08:42:32.470Z,101.25
2022-12-25T08:43:32.444Z,101.25
2022-12-25T08:44:32.624Z,101.25
2022-12-25T08:45:35.245Z,101.25
2022-12-25T08:46:33.065Z,106.88
2022-12-25T08:47:32.432Z,112.50
2022-12-25T08:48:32.396Z,112.50
2022-12-25T08:49:32.776Z,112.50
2022-12-25T08:50:32.335Z,112.50
2022-12-25T08:51:33.493Z,112.50
2022-12-25T08:52:32.340Z,112.50
2022-12-25T08:53:32.369Z,118.12
2022-12-25T08:54:32.984Z,118.12
2022-12-25T08:55:32.339Z,123.75
2022-12-25T08:56:32.278Z,123.75
2022-12-25T08:57:33.437Z,123.75
2022-12-25T08:58:33.237Z,123.75
2022-12-25T08:59:32.400Z,123.75
2022-12-25T09:00:32.269Z,123.75
2022-12-25T09:01:32.333Z,118.12
2022-12-25T09:02:32.612Z,118.12
2022-12-25T09:03:32.325Z,112.50
2022-12-25T09:04:32.493Z,112.50
2022-12-25T09:05:32.243Z,106.88
2022-12-25T09:06:32.143Z,106.88
2022-12-25T09:07:32.187Z,106.88
2022-12-25T09:08:32.124Z,106.88
2022-12-25T09:09:32.102Z,106.88
2022-12-25T09:10:32.108Z,106.88
2022-12-25T09:11:32.149Z,101.25
2022-12-25T09:12:32.060Z,101.25
2022-12-25T09:13:32.168Z,101.25
2022-12-25T09:14:32.868Z,101.25
2022-12-25T09:15:32.136Z,101.25
2022-12-25T09:16:32.115Z,101.25
2022-12-25T09:17:32.011Z,101.25
2022-12-25T09:18:31.966Z,101.25
2022-12-25T09:19:32.129Z,106.88
2022-12-25T09:20:31.948Z,106.88
2022-12-25T09:21:32.242Z,106.88
2022-12-25T09:22:31.952Z,106.88
2022-12-25T09:23:31.939Z,106.88
2022-12-25T09:24:32.002Z,112.50
2022-12-25T09:25:31.900Z,118.12
2022-12-25T09:26:32.302Z,118.12
2022-12-25T09:27:31.922Z,123.75
2022-12-25T09:28:31.881Z,129.38
2022-12-25T09:29:31.820Z,135.00
2022-12-25T09:30:31.883Z,140.62
2022-12-25T09:31:32.120Z,146.25
2022-12-25T09:32:32.636Z,157.50
2022-12-25T09:33:31.798Z,163.12
2022-12-25T09:34:31.925Z,163.12
2022-12-25T09:35:31.783Z,157.50
2022-12-25T09:36:31.780Z,157.50
2022-12-25T09:37:31.756Z,151.88
2022-12-25T09:38:31.828Z,146.25
2022-12-25T09:39:31.730Z,146.25
2022-12-25T09:40:31.722Z,146.25
2022-12-25T09:41:31.770Z,146.25
2022-12-25T09:42:32.693Z,140.62
2022-12-25T09:43:31.712Z,140.62
2022-12-25T09:44:31.660Z,135.00
2022-12-25T09:45:31.663Z,135.00
2022-12-25T09:46:37.019Z,135.00
2022-12-25T09:47:32.727Z,135.00
2022-12-25T09:48:31.704Z,135.00
2022-12-25T09:49:31.626Z,140.62
2022-12-25T09:50:31.596Z,140.62
2022-12-25T09:51:31.549Z,146.25
2022-12-25T09:52:31.606Z,157.50
2022-12-25T09:53:31.550Z,163.12
2022-12-25T09:54:31.510Z,168.75
2022-12-25T09:55:31.857Z,174.38
2022-12-25T09:56:32.192Z,180.00
2022-12-25T09:57:31.473Z,180.00
2022-12-25T09:58:31.499Z,180.00
2022-12-25T09:59:31.473Z,174.38
2022-12-25T10:00:31.507Z,168.75
2022-12-25T10:01:31.525Z,157.50
2022-12-25T10:02:31.824Z,151.88
2022-12-25T10:03:31.561Z,140.62
2022-12-25T10:04:36.033Z,135.00
2022-12-25T10:05:32.498Z,135.00
2022-12-25T10:06:31.451Z,140.62
2022-12-25T10:07:31.956Z,140.62
2022-12-25T10:08:31.363Z,140.62
2022-12-25T10:09:31.295Z,135.00
2022-12-25T10:10:31.369Z,129.38
2022-12-25T10:11:31.354Z,129.38
2022-12-25T10:12:31.262Z,123.75
2022-12-25T10:13:31.340Z,118.12
2022-12-25T10:14:32.112Z,112.50
2022-12-25T10:15:31.319Z,112.50
2022-12-25T10:16:31.305Z,112.50
2022-12-25T10:17:31.235Z,112.50
2022-12-25T10:18:31.403Z,118.12
2022-12-25T10:19:31.218Z,123.75
2022-12-25T10:20:31.223Z,129.38
2022-12-25T10:21:31.239Z,135.00
2022-12-25T10:22:31.370Z,140.62
2022-12-25T10:23:31.125Z,146.25
2022-12-25T10:24:31.220Z,146.25
2022-12-25T10:25:31.104Z,146.25
2022-12-25T10:26:31.129Z,146.25
2022-12-25T10:27:31.121Z,151.88
2022-12-25T10:28:31.587Z,151.88
2022-12-25T10:29:31.159Z,157.50
2022-12-25T10:30:31.063Z,157.50
2022-12-25T10:31:31.091Z,163.12
2022-12-25T10:32:31.092Z,163.12
2022-12-25T10:33:31.070Z,163.12
2022-12-25T10:34:31.794Z,163.12
2022-12-25T10:35:31.096Z,163.12
2022-12-25T10:36:31.032Z,157.50
2022-12-25T10:37:30.979Z,157.50
2022-12-25T10:38:30.911Z,157.50
2022-12-25T10:39:30.949Z,151.88
2022-12-25T10:40:30.917Z,151.88
2022-12-25T10:41:30.900Z,151.88
2022-12-25T10:42:30.865Z,151.88
2022-12-25T10:43:31.447Z,151.88
2022-12-25T10:44:30.897Z,157.50
2022-12-25T10:45:30.873Z,163.12
2022-12-25T10:46:30.942Z,168.75
2022-12-25T10:47:30.832Z,174.38
2022-12-25T10:48:30.856Z,180.00
2022-12-25T10:49:30.932Z,180.00
2022-12-25T10:50:30.775Z,180.00
2022-12-25T10:51:30.769Z,174.38
2022-12-25T10:52:31.714Z,168.75
2022-12-25T10:53:30.796Z,168.75
2022-12-25T10:54:30.721Z,168.75
2022-12-25T10:55:31.235Z,168.75
2022-12-25T10:56:30.801Z,163.12
2022-12-25T10:57:30.726Z,168.75
2022-12-25T10:58:30.712Z,168.75
2022-12-25T10:59:31.607Z,168.75
2022-12-25T11:00:30.711Z,168.75
2022-12-25T11:01:30.851Z,168.75
2022-12-25T11:02:30.815Z,168.75
2022-12-25T11:03:30.761Z,168.75
2022-12-25T11:04:30.637Z,168.75
2022-12-25T11:05:30.648Z,174.38
2022-12-25T11:06:30.575Z,168.75
2022-12-25T11:07:30.650Z,168.75
2022-12-25T11:08:30.614Z,163.12
2022-12-25T11:09:30.550Z,157.50
2022-12-25T11:10:30.594Z,157.50
2022-12-25T11:11:30.547Z,157.50
2022-12-25T11:12:30.495Z,163.12
2022-12-25T11:13:30.600Z,163.12
2022-12-25T11:14:30.502Z,157.50
2022-12-25T11:15:30.499Z,157.50
2022-12-25T11:16:30.505Z,151.88
2022-12-25T11:17:30.655Z,151.88
2022-12-25T11:18:30.410Z,151.88
2022-12-25T11:19:30.531Z,151.88
2022-12-25T11:20:30.403Z,146.25
2022-12-25T11:21:30.503Z,146.25
2022-12-25T11:22:30.360Z,140.62
2022-12-25T11:23:30.329Z,135.00
2022-12-25T11:24:31.602Z,129.38
2022-12-25T11:25:30.442Z,123.75
2022-12-25T11:26:30.401Z,118.12
2022-12-25T11:27:30.291Z,112.50
2022-12-25T11:28:30.257Z,112.50
2022-12-25T11:29:30.361Z,112.50
2022-12-25T11:30:30.284Z,118.12
2022-12-25T11:31:30.289Z,112.50
2022-12-25T11:32:30.284Z,112.50
2022-12-25T11:33:30.245Z,112.50
2022-12-25T11:34:31.202Z,106.88
2022-12-25T11:35:31.246Z,106.88
2022-12-25T11:36:30.303Z,106.88
2022-12-25T11:37:30.207Z,101.25
2022-12-25T11:38:30.185Z,101.25
2022-12-25T11:39:30.151Z,101.25
2022-12-25T11:40:30.158Z,101.25
2022-12-25T11:41:30.263Z,101.25
2022-12-25T11:42:30.141Z,101.25
2022-12-25T11:43:30.093Z,101.25
2022-12-25T11:44:30.154Z,101.25
2022-12-25T11:45:30.061Z,101.25
2022-12-25T11:46:30.212Z,106.88
2022-12-25T11:47:30.184Z,112.50
2022-12-25T11:48:30.067Z,123.75
2022-12-25T11:49:30.006Z,129.38
2022-12-25T11:50:30.033Z,140.62
2022-12-25T11:51:29.986Z,151.88
2022-12-25T11:52:30.964Z,163.12
2022-12-25T11:53:29.993Z,174.38
2022-12-25T11:54:29.949Z,185.62
2022-12-25T11:55:30.081Z,191.25
2022-12-25T11:56:29.970Z,196.88
2022-12-25T11:57:29.954Z,202.50
2022-12-25T11:58:30.509Z,208.12
2022-12-25T11:59:30.808Z,219.38
2022-12-25T12:00:29.914Z,225.00
2022-12-25T12:01:29.960Z,230.62
2022-12-25T12:02:29.912Z,236.25
2022-12-25T12:03:29.995Z,241.88
2022-12-25T12:04:35.161Z,241.88
2022-12-25T12:05:30.795Z,247.50
2022-12-25T12:06:29.814Z,241.88
2022-12-25T12:07:29.769Z,236.25
2022-12-25T12:08:29.767Z,230.62
2022-12-25T12:09:29.767Z,230.62
2022-12-25T12:10:29.717Z,225.00
2022-12-25T12:11:29.701Z,219.38
2022-12-25T12:12:29.747Z,213.75
2022-12-25T12:13:29.695Z,202.50
2022-12-25T12:14:29.708Z,196.88
2022-12-25T12:15:29.756Z,196.88
2022-12-25T12:16:29.922Z,208.12
2022-12-25T12:17:29.627Z,208.12
2022-12-25T12:18:29.642Z,208.12
2022-12-25T12:19:29.620Z,213.75
2022-12-25T12:20:29.657Z,213.75
2022-12-25T12:21:29.650Z,213.75
2022-12-25T12:22:29.594Z,208.12
2022-12-25T12:23:29.598Z,208.12
2022-12-25T12:24:30.456Z,202.50
2022-12-25T12:25:29.547Z,196.88
2022-12-25T12:26:29.586Z,191.25
2022-12-25T12:27:29.535Z,185.62
2022-12-25T12:28:29.515Z,180.00
2022-12-25T12:29:30.269Z,174.38
2022-12-25T12:30:29.459Z,163.12
2022-12-25T12:31:29.486Z,157.50
2022-12-25T12:32:29.478Z,146.25
2022-12-25T12:33:29.461Z,140.62
2022-12-25T12:34:30.136Z,135.00
2022-12-25T12:35:29.542Z,129.38
2022-12-25T12:36:36.076Z,118.12
2022-12-25T12:37:30.670Z,112.50
2022-12-25T12:38:29.366Z,106.88
2022-12-25T12:39:29.353Z,106.88
2022-12-25T12:40:29.772Z,106.88
2022-12-25T12:41:29.349Z,106.88
2022-12-25T12:42:29.343Z,112.50
2022-12-25T12:43:29.303Z,112.50
2022-12-25T12:44:30.259Z,118.12
2022-12-25T12:45:29.446Z,118.12
2022-12-25T12:46:31.293Z,118.12
2022-12-25T12:47:29.398Z,112.50
2022-12-25T12:48:29.258Z,106.88
2022-12-25T12:49:29.227Z,106.88
2022-12-25T12:50:30.660Z,101.25
2022-12-25T12:51:30.421Z,90.00
2022-12-25T12:52:29.306Z,78.75
2022-12-25T12:53:29.219Z,73.12
2022-12-25T12:54:29.180Z,67.50
2022-12-25T12:55:29.145Z,61.88
2022-12-25T12:56:29.154Z,61.88
2022-12-25T12:57:29.151Z,56.25
2022-12-25T12:58:29.156Z,56.25